Time;durP1;ratioP1;P1;durP2;ratioP2;P2;SDS_P1;SDS_P2;PMS_P1;PMS_P2;Temp;Humidity;BMP_temperature;BMP_pressure;BME280_temperature;BME280_humidity;BME280_pressure;Samples;Min_cycle;Max_cycle;Signal;HPM_P1;HPM_P2
2023/09/06 00:01:07;;;;;;;4.50;3.70;;;;;;;13.94;83.47;97510.65;109214;1271;22525;-81
2023/09/06 00:03:40;;;;;;;5.40;3.50;;;;;;;13.91;83.47;97509.49;109209;1269;24164;-81
2023/09/06 00:06:12;;;;;;;5.90;4.10;;;;;;;13.88;83.38;97507.00;109232;1272;22514;-81
2023/09/06 00:08:43;;;;;;;4.90;3.50;;;;;;;13.84;83.40;97501.29;109325;1272;22517;-81
2023/09/06 00:11:15;;;;;;;4.80;3.70;;;;;;;13.85;83.63;97503.73;109218;1271;22551;-80
2023/09/06 00:13:46;;;;;;;4.60;3.70;;;;;;;13.88;83.61;97497.47;109243;1272;22932;-81
2023/09/06 00:16:17;;;;;;;5.80;3.50;;;;;;;13.91;83.58;97502.88;109272;1271;26413;-81
2023/09/06 00:18:48;;;;;;;4.50;3.90;;;;;;;13.92;83.36;97503.98;109264;1267;22614;-81
2023/09/06 00:21:19;;;;;;;5.90;4.20;;;;;;;13.92;83.42;97503.19;109209;1266;49189;-81
2023/09/06 00:23:53;;;;;;;5.50;4.00;;;;;;;13.93;83.37;97502.34;109187;1265;22535;-81
2023/09/06 00:26:26;;;;;;;5.50;3.80;;;;;;;13.89;83.24;97500.92;109212;1271;22527;-81
2023/09/06 00:28:57;;;;;;;6.60;4.20;;;;;;;13.82;83.09;97502.95;109225;1265;24184;-81
2023/09/06 00:31:33;;;;;;;5.80;3.80;;;;;;;13.77;83.32;97501.74;109195;1271;22537;-81
2023/09/06 00:34:04;;;;;;;6.80;3.90;;;;;;;13.78;83.44;97500.98;109249;1272;22701;-81
2023/09/06 00:36:36;;;;;;;7.70;4.10;;;;;;;13.80;83.39;97497.74;109262;1270;22530;-81
2023/09/06 00:39:08;;;;;;;6.80;4.20;;;;;;;13.79;83.38;97495.40;109265;1266;23228;-81
2023/09/06 00:41:44;;;;;;;6.30;3.70;;;;;;;13.76;83.29;97496.95;109213;1271;39053;-80
2023/09/06 00:44:18;;;;;;;4.30;3.30;;;;;;;13.75;83.26;97495.10;109252;1263;22543;-81
2023/09/06 00:46:49;;;;;;;5.20;3.70;;;;;;;13.76;83.46;97494.56;109318;1266;22581;-81
2023/09/06 00:49:23;;;;;;;4.40;3.40;;;;;;;13.75;83.54;97491.64;109259;1271;22525;-81
2023/09/06 00:51:55;;;;;;;4.80;3.60;;;;;;;13.75;83.62;97491.48;109261;1271;22620;-81
2023/09/06 00:54:26;;;;;;;5.30;3.60;;;;;;;13.65;83.10;97492.17;109205;1271;22514;-81
2023/09/06 00:56:57;;;;;;;5.80;3.80;;;;;;;13.53;83.14;97494.88;109233;1272;22977;-81
2023/09/06 00:59:30;;;;;;;4.30;3.10;;;;;;;13.40;83.21;97498.08;109216;1266;22558;-81
2023/09/06 01:02:02;;;;;;;4.40;3.00;;;;;;;13.28;83.48;97496.64;109193;1272;26800;-81
2023/09/06 01:04:33;;;;;;;5.00;3.60;;;;;;;13.20;83.60;97493.69;109295;1272;22721;-81
2023/09/06 01:07:25;;;;;;;6.80;4.10;;;;;;;13.08;83.60;97494.34;109227;1271;22785;-81
2023/09/06 01:09:56;;;;;;;6.00;3.80;;;;;;;12.98;83.92;97496.52;109283;1266;22529;-81
2023/09/06 01:12:29;;;;;;;7.80;3.60;;;;;;;12.91;84.18;97501.16;109205;1266;43300;-81
2023/09/06 01:15:00;;;;;;;6.10;4.50;;;;;;;12.91;84.72;97500.58;109262;1266;22514;-81
2023/09/06 01:17:36;;;;;;;5.40;4.00;;;;;;;12.97;84.87;97502.22;109231;1271;22535;-81
2023/09/06 01:20:15;;;;;;;8.00;4.30;;;;;;;12.99;84.87;97507.06;109301;1271;22538;-81
2023/09/06 01:22:54;;;;;;;6.60;4.60;;;;;;;12.99;84.99;97507.70;109245;1264;22531;-81
2023/09/06 01:25:26;;;;;;;6.10;4.10;;;;;;;13.01;85.19;97509.08;109235;1266;22520;-81
2023/09/06 01:27:57;;;;;;;6.50;3.70;;;;;;;13.03;85.23;97505.92;109222;1271;22512;-81
2023/09/06 01:30:32;;;;;;;4.40;3.70;;;;;;;13.02;85.30;97502.46;109258;1266;22520;-81
2023/09/06 01:33:04;;;;;;;5.50;3.80;;;;;;;13.02;85.42;97506.61;109175;1271;22622;-80
2023/09/06 01:35:35;;;;;;;7.10;3.70;;;;;;;12.97;85.43;97500.67;109230;1271;24327;-80
2023/09/06 01:38:06;;;;;;;6.80;3.80;;;;;;;12.94;85.52;97497.16;109308;1265;23846;-81
2023/09/06 01:40:41;;;;;;;6.60;4.00;;;;;;;12.93;85.64;97500.77;109245;1266;55680;-80
2023/09/06 01:43:18;;;;;;;6.00;4.40;;;;;;;12.88;85.51;97496.07;109239;1267;22504;-81
2023/09/06 01:45:51;;;;;;;6.80;4.30;;;;;;;12.80;85.65;97501.63;109244;1272;22511;-81
2023/09/06 01:48:22;;;;;;;6.30;4.10;;;;;;;12.83;86.01;97501.79;109263;1271;22557;-81
2023/09/06 01:50:55;;;;;;;5.40;3.60;;;;;;;12.85;85.98;97500.55;109240;1266;35239;-81
2023/09/06 01:53:27;;;;;;;4.80;3.70;;;;;;;12.82;85.99;97498.33;109215;1272;22512;-81
2023/09/06 01:56:00;;;;;;;7.70;4.10;;;;;;;12.82;86.22;97499.88;109291;1272;23862;-81
2023/09/06 01:58:32;;;;;;;5.40;3.80;;;;;;;12.83;86.34;97499.98;109243;1272;22536;-82
2023/09/06 02:01:04;;;;;;;5.80;4.40;;;;;;;12.85;86.54;97499.86;109175;1271;98915;-82
2023/09/06 02:03:36;;;;;;;5.70;4.10;;;;;;;12.90;86.63;97494.94;109226;1266;22511;-82
2023/09/06 02:06:10;;;;;;;4.60;3.70;;;;;;;12.94;86.69;97493.59;109212;1272;22560;-82
2023/09/06 02:08:47;;;;;;;4.80;4.20;;;;;;;12.98;86.86;97495.62;109215;1271;23696;-82
2023/09/06 02:11:18;;;;;;;5.90;4.20;;;;;;;13.03;86.90;97500.11;109242;1266;22606;-82
2023/09/06 02:13:52;;;;;;;6.30;4.20;;;;;;;13.08;87.00;97500.52;109237;1272;22572;-81
2023/09/06 02:16:23;;;;;;;6.40;4.30;;;;;;;13.14;86.93;97500.51;109261;1266;22536;-81
2023/09/06 02:18:54;;;;;;;6.10;4.00;;;;;;;13.19;86.84;97500.06;109321;1271;24064;-82
2023/09/06 02:21:26;;;;;;;7.50;4.80;;;;;;;13.25;86.88;97503.26;109109;1250;49854;-82
2023/09/06 02:23:58;;;;;;;5.20;4.20;;;;;;;13.29;86.82;97500.36;109214;1271;22514;-81
2023/09/06 02:26:44;;;;;;;7.70;4.70;;;;;;;13.33;86.75;97498.16;109243;1266;22508;-81
2023/09/06 02:29:18;;;;;;;8.80;4.50;;;;;;;13.36;86.74;97498.35;109264;1266;22635;-81
2023/09/06 02:31:49;;;;;;;5.10;4.20;;;;;;;13.36;86.58;97492.02;109217;1271;38935;-81
2023/09/06 02:34:20;;;;;;;6.00;4.70;;;;;;;13.35;86.52;97493.73;109269;1271;22519;-81
2023/09/06 02:36:53;;;;;;;6.70;4.40;;;;;;;13.33;86.49;97491.55;109302;1266;22519;-82
2023/09/06 02:39:25;;;;;;;7.30;4.60;;;;;;;13.34;86.58;97490.69;109275;1269;22535;-81
2023/09/06 02:41:57;;;;;;;6.80;4.40;;;;;;;13.36;86.63;97489.13;109238;1272;49681;-82
2023/09/06 02:44:30;;;;;;;5.80;4.40;;;;;;;13.38;86.47;97489.46;109125;1264;22508;-81
2023/09/06 02:47:09;;;;;;;8.00;4.60;;;;;;;13.38;86.36;97489.66;109292;1271;25441;-82
2023/09/06 02:49:43;;;;;;;7.20;4.70;;;;;;;13.38;86.47;97487.07;109234;1271;25475;-81
2023/09/06 02:52:28;;;;;;;6.00;4.50;;;;;;;13.39;86.54;97484.92;109179;1272;74859;-81
2023/09/06 02:55:05;;;;;;;7.50;4.30;;;;;;;13.41;86.50;97485.13;109250;1271;22528;-82
2023/09/06 02:57:38;;;;;;;5.30;4.00;;;;;;;13.41;86.40;97486.46;109212;1271;22529;-82
2023/09/06 03:00:24;;;;;;;6.00;4.50;;;;;;;13.39;86.23;97488.50;109267;1271;22594;-81
2023/09/06 03:03:05;;;;;;;5.60;4.10;;;;;;;13.37;86.26;97486.69;109181;1269;50531;-81
2023/09/06 03:05:42;;;;;;;4.60;3.60;;;;;;;13.38;86.35;97485.95;109240;1266;22525;-82
2023/09/06 03:08:14;;;;;;;6.20;3.90;;;;;;;13.40;86.31;97484.71;109231;1272;24265;-81
2023/09/06 03:10:52;;;;;;;6.00;4.30;;;;;;;13.42;86.31;97481.92;109241;1266;64397;-82
2023/09/06 03:13:23;;;;;;;5.40;4.00;;;;;;;13.44;86.29;97481.48;109245;1267;24854;-81
2023/09/06 03:15:59;;;;;;;6.40;4.60;;;;;;;13.46;86.37;97481.63;109291;1271;22573;-81
2023/09/06 03:18:30;;;;;;;7.50;4.40;;;;;;;13.47;86.33;97480.94;109185;1266;25141;-81
2023/09/06 03:21:05;;;;;;;5.40;4.20;;;;;;;13.49;86.38;97474.14;109221;1271;70085;-81
2023/09/06 03:23:44;;;;;;;7.60;4.10;;;;;;;13.51;86.27;97474.95;109225;1251;22576;-81
2023/09/06 03:26:16;;;;;;;6.20;4.20;;;;;;;13.52;86.30;97475.27;109209;1272;22530;-81
2023/09/06 03:28:47;;;;;;;6.00;4.00;;;;;;;13.51;86.17;97479.10;109291;1271;22565;-81
2023/09/06 03:31:18;;;;;;;3.90;3.50;;;;;;;13.49;86.15;97478.52;109190;1271;56581;-81
2023/09/06 03:33:50;;;;;;;6.40;4.00;;;;;;;13.46;86.07;97476.57;109237;1269;22560;-81
2023/09/06 03:36:24;;;;;;;6.20;4.00;;;;;;;13.43;86.11;97471.46;109069;1271;22527;-81
2023/09/06 03:39:00;;;;;;;7.00;4.20;;;;;;;13.45;86.24;97476.20;109278;1271;24054;-81
2023/09/06 03:41:34;;;;;;;6.20;4.40;;;;;;;13.46;86.15;97475.98;109186;1271;42112;-81
2023/09/06 03:44:17;;;;;;;6.40;4.20;;;;;;;13.46;86.12;97476.84;109233;1266;22471;-81
2023/09/06 03:46:51;;;;;;;6.60;4.50;;;;;;;13.45;86.20;97476.37;109213;1272;25475;-81
2023/09/06 03:49:24;;;;;;;5.80;4.10;;;;;;;13.46;86.29;97473.48;109259;1269;22522;-81
2023/09/06 03:51:56;;;;;;;5.90;4.00;;;;;;;13.46;86.29;97470.91;109160;1271;70889;-81
2023/09/06 03:54:34;;;;;;;6.90;4.70;;;;;;;13.45;86.25;97467.58;109223;1272;22552;-81
2023/09/06 03:57:12;;;;;;;6.20;4.00;;;;;;;13.46;86.14;97474.65;109238;1271;22507;-82
2023/09/06 03:59:46;;;;;;;6.60;4.10;;;;;;;13.44;86.05;97477.38;109234;1270;22630;-81
2023/09/06 04:02:27;;;;;;;5.50;3.90;;;;;;;13.42;86.15;97478.89;109154;1271;45381;-81
2023/09/06 04:04:58;;;;;;;5.40;4.10;;;;;;;13.42;86.18;97482.78;109190;1271;22631;-82
2023/09/06 04:07:32;;;;;;;6.20;4.70;;;;;;;13.43;86.18;97484.85;109128;1266;22550;-81
2023/09/06 04:10:04;;;;;;;5.60;4.00;;;;;;;13.46;86.34;97489.78;109177;1269;22585;-81
2023/09/06 04:12:39;;;;;;;6.10;3.70;;;;;;;13.48;86.24;97492.00;109189;1271;23477;-81
2023/09/06 04:15:14;;;;;;;6.50;4.40;;;;;;;13.49;86.26;97491.35;109244;1271;22522;-81
2023/09/06 04:17:45;;;;;;;4.90;4.00;;;;;;;13.55;86.45;97490.27;109191;1271;22565;-81
2023/09/06 04:20:23;;;;;;;5.10;3.80;;;;;;;13.72;86.64;97487.50;109229;1271;25128;-81
2023/09/06 04:22:56;;;;;;;5.70;4.00;;;;;;;13.97;86.60;97486.95;109155;1266;66815;-81
2023/09/06 04:25:28;;;;;;;6.70;4.10;;;;;;;14.22;86.44;97486.81;109239;1266;22508;-81
2023/09/06 04:27:59;;;;;;;4.50;3.70;;;;;;;14.48;86.08;97486.13;109204;1272;22943;-81
2023/09/06 04:30:32;;;;;;;6.20;3.90;;;;;;;14.76;85.87;97487.72;109194;1266;22519;-81
2023/09/06 04:33:03;;;;;;;5.30;3.90;;;;;;;15.03;85.35;97489.19;109240;1272;22553;-81
2023/09/06 04:35:37;;;;;;;5.70;4.30;;;;;;;15.27;85.01;97485.52;109186;1266;22552;-81
2023/09/06 04:38:11;;;;;;;7.70;4.40;;;;;;;15.59;84.78;97483.19;109235;1266;22534;-81
2023/09/06 04:40:46;;;;;;;8.40;4.30;;;;;;;15.93;84.45;97479.61;109229;1272;22551;-81
2023/09/06 04:43:22;;;;;;;5.40;3.90;;;;;;;16.28;84.08;97475.73;109230;1271;22519;-81
2023/09/06 04:45:56;;;;;;;5.60;3.80;;;;;;;16.55;83.23;97478.67;109298;1266;22534;-81
2023/09/06 04:48:32;;;;;;;5.50;4.00;;;;;;;16.78;82.66;97478.61;109192;1271;22504;-81
2023/09/06 04:51:03;;;;;;;4.70;3.70;;;;;;;16.97;81.87;97477.42;109203;1272;26381;-82
2023/09/06 04:53:35;;;;;;;6.30;3.90;;;;;;;16.94;81.08;97480.56;109181;1272;22507;-81
2023/09/06 04:56:10;;;;;;;5.10;3.90;;;;;;;17.00;80.97;97481.89;109212;1271;22507;-81
2023/09/06 04:58:41;;;;;;;5.80;4.30;;;;;;;17.22;80.95;97477.44;109225;1271;22760;-81
2023/09/06 05:01:13;;;;;;;6.20;3.90;;;;;;;17.52;80.57;97481.26;109213;1271;24038;-81
2023/09/06 05:03:45;;;;;;;5.50;4.00;;;;;;;17.75;79.88;97487.14;109263;1264;23857;-81
2023/09/06 05:06:17;;;;;;;5.50;4.00;;;;;;;18.01;79.58;97487.84;109215;1267;22550;-81
2023/09/06 05:08:49;;;;;;;5.20;3.10;;;;;;;18.29;78.92;97487.55;109217;1271;22494;-81
2023/09/06 05:11:20;;;;;;;4.50;3.50;;;;;;;18.56;78.88;97493.06;109149;1265;81294;-81
2023/09/06 05:13:53;;;;;;;5.60;3.50;;;;;;;18.92;78.58;97491.10;109259;1266;22630;-81
2023/09/06 05:16:26;;;;;;;5.40;3.90;;;;;;;19.21;77.45;97494.93;109257;1272;22550;-81
2023/09/06 05:18:57;;;;;;;5.30;3.80;;;;;;;19.39;76.59;97496.66;109188;1271;24395;-80
2023/09/06 05:21:30;;;;;;;5.90;3.60;;;;;;;19.57;76.19;97499.81;109166;1266;29763;-80
2023/09/06 05:24:01;;;;;;;5.30;3.60;;;;;;;19.93;76.03;97499.89;109230;1253;23052;-81
2023/09/06 05:26:34;;;;;;;5.40;3.50;;;;;;;20.16;74.45;97502.84;109265;1269;22636;-81
2023/09/06 05:29:08;;;;;;;3.70;3.30;;;;;;;20.26;73.55;97502.95;109370;1271;22519;-81
2023/09/06 05:31:40;;;;;;;4.10;3.30;;;;;;;20.28;72.72;97506.84;109418;1268;24794;-82
2023/09/06 05:34:11;;;;;;;4.50;3.50;;;;;;;20.36;72.28;97502.63;109414;1266;22536;-81
2023/09/06 05:36:42;;;;;;;4.20;3.50;;;;;;;20.38;71.09;97502.96;109474;1266;22507;-81
2023/09/06 05:39:14;;;;;;;5.00;3.50;;;;;;;20.28;70.87;97511.57;109459;1266;22508;-81
2023/09/06 05:41:45;;;;;;;4.80;3.30;;;;;;;20.33;70.46;97517.33;109349;1266;30978;-80
2023/09/06 05:44:32;;;;;;;5.80;4.00;;;;;;;20.59;70.56;97518.17;109250;1265;22508;-80
2023/09/06 05:47:04;;;;;;;4.20;3.40;;;;;;;20.92;70.05;97521.41;109239;1269;22532;-79
2023/09/06 05:49:38;;;;;;;6.40;3.90;;;;;;;21.20;69.83;97517.14;109226;1271;22575;-80
2023/09/06 05:52:16;;;;;;;5.70;3.40;;;;;;;21.49;69.38;97513.99;109253;1269;42194;-80
2023/09/06 05:54:57;;;;;;;3.90;3.40;;;;;;;21.75;68.92;97519.29;109220;1265;22514;-80
2023/09/06 05:57:39;;;;;;;6.50;3.80;;;;;;;21.91;68.39;97517.05;109202;1265;22534;-80
2023/09/06 06:00:28;;;;;;;4.80;3.40;;;;;;;22.02;67.77;97514.27;109233;1271;22516;-80
2023/09/06 06:03:19;;;;;;;4.60;3.40;;;;;;;22.19;67.94;97513.32;109258;1253;22592;-80
2023/09/06 06:06:10;;;;;;;5.80;3.80;;;;;;;22.48;67.86;97515.50;109198;1271;22557;-80
2023/09/06 06:08:48;;;;;;;7.20;3.80;;;;;;;22.56;67.16;97515.21;109235;1271;23127;-80
2023/09/06 06:11:40;;;;;;;5.40;3.70;;;;;;;22.52;66.60;97511.77;109128;1267;76539;-80
2023/09/06 06:14:19;;;;;;;4.90;3.80;;;;;;;22.48;66.34;97511.23;108865;1271;24183;-80
2023/09/06 06:16:58;;;;;;;5.80;3.90;;;;;;;22.46;66.11;97510.87;108838;1269;22585;-80
2023/09/06 06:19:29;;;;;;;4.90;3.80;;;;;;;22.46;65.99;97510.02;109234;1271;22520;-80
2023/09/06 06:22:03;;;;;;;6.70;4.20;;;;;;;22.40;65.44;97510.48;109174;1269;56668;-80
2023/09/06 06:24:37;;;;;;;4.40;3.70;;;;;;;22.31;64.75;97508.89;109266;1265;24537;-80
2023/09/06 06:27:10;;;;;;;4.80;3.50;;;;;;;22.28;64.83;97509.39;109195;1267;22511;-79
2023/09/06 06:29:42;;;;;;;6.70;3.60;;;;;;;22.29;64.44;97505.71;109260;1247;22549;-80
2023/09/06 06:32:15;;;;;;;4.40;3.50;;;;;;;22.17;63.70;97510.92;109178;1272;50733;-80
2023/09/06 06:34:49;;;;;;;4.00;3.60;;;;;;;22.08;63.54;97514.59;109304;1268;24247;-80
2023/09/06 06:37:22;;;;;;;5.20;3.50;;;;;;;22.01;63.40;97516.02;109217;1269;22692;-80
2023/09/06 06:39:54;;;;;;;4.90;3.40;;;;;;;21.92;63.51;97514.52;109270;1269;26446;-80
2023/09/06 06:42:26;;;;;;;8.00;4.10;;;;;;;21.89;63.50;97516.60;109104;1265;90920;-80
2023/09/06 06:44:58;;;;;;;5.00;3.30;;;;;;;22.04;64.03;97516.45;109256;1272;22508;-80
2023/09/06 06:47:29;;;;;;;5.00;3.20;;;;;;;22.13;63.55;97514.72;109233;1272;22511;-80
2023/09/06 06:50:05;;;;;;;5.50;3.50;;;;;;;22.22;63.42;97517.52;109232;1266;25228;-79
2023/09/06 06:52:44;;;;;;;6.20;3.80;;;;;;;22.30;63.20;97522.66;108768;1251;93569;-79
2023/09/06 06:55:16;;;;;;;6.40;3.30;;;;;;;22.31;63.07;97523.38;108820;1265;24839;-79
2023/09/06 06:57:48;;;;;;;4.10;3.60;;;;;;;22.37;63.26;97521.64;109230;1271;24207;-79
2023/09/06 07:00:21;;;;;;;5.70;3.80;;;;;;;22.51;63.10;97520.84;109243;1271;22605;-79
2023/09/06 07:02:53;;;;;;;5.10;3.70;;;;;;;22.58;62.79;97523.07;108874;1263;38824;-80
2023/09/06 07:05:25;;;;;;;4.10;3.30;;;;;;;22.58;62.60;97523.16;108823;1262;25414;-80
2023/09/06 07:07:56;;;;;;;4.80;3.60;;;;;;;22.61;62.63;97523.26;109195;1270;22530;-80
2023/09/06 07:10:27;;;;;;;4.00;3.60;;;;;;;22.71;63.04;97516.22;109242;1268;22554;-80
2023/09/06 07:12:58;;;;;;;4.90;3.30;;;;;;;22.92;63.16;97523.71;109242;1271;52902;-82
2023/09/06 07:15:30;;;;;;;4.40;3.50;;;;;;;23.04;62.63;97525.83;109199;1272;22923;-82
2023/09/06 07:18:06;;;;;;;3.90;3.30;;;;;;;23.07;62.38;97525.55;109289;1272;22515;-82
2023/09/06 07:20:40;;;;;;;4.40;3.80;;;;;;;23.11;62.37;97525.58;109201;1271;25438;-81
2023/09/06 07:23:11;;;;;;;4.10;3.20;;;;;;;23.21;62.27;97525.38;109252;1266;22549;-82
2023/09/06 07:25:46;;;;;;;4.30;3.40;;;;;;;23.28;61.95;97525.67;109215;1263;22771;-82
2023/09/06 07:28:22;;;;;;;4.10;3.50;;;;;;;23.26;61.35;97525.23;109166;1272;26848;-81
2023/09/06 07:30:54;;;;;;;6.90;3.40;;;;;;;23.31;61.73;97527.55;109206;1266;49857;-81
2023/09/06 07:33:25;;;;;;;5.90;3.60;;;;;;;23.47;61.62;97526.51;109231;1272;22504;-81
2023/09/06 07:35:56;;;;;;;6.00;3.60;;;;;;;23.58;61.48;97528.41;109221;1272;22532;-81
2023/09/06 07:38:28;;;;;;;7.50;3.60;;;;;;;23.57;61.06;97526.96;109200;1269;22554;-82
2023/09/06 07:41:04;;;;;;;5.10;3.30;;;;;;;23.53;60.74;97529.70;107655;1266;2079855;-82
2023/09/06 07:43:39;;;;;;;6.00;3.40;;;;;;;23.43;60.15;97531.30;109277;1266;23832;-86
2023/09/06 07:46:14;;;;;;;6.60;3.40;;;;;;;23.32;60.22;97535.55;109313;1267;25319;-85
2023/09/06 07:48:45;;;;;;;5.90;3.20;;;;;;;23.28;59.36;97539.73;109229;1253;22509;-85
2023/09/06 07:51:17;;;;;;;5.10;3.60;;;;;;;23.28;59.79;97538.29;109352;1271;36996;-85
2023/09/06 07:53:48;;;;;;;5.40;3.90;;;;;;;23.45;60.16;97536.86;109165;1271;25418;-86
2023/09/06 07:56:21;;;;;;;4.90;3.40;;;;;;;23.57;60.30;97533.93;109212;1272;22551;-85
2023/09/06 07:58:56;;;;;;;4.90;3.30;;;;;;;23.74;60.55;97535.69;109192;1272;22568;-85
2023/09/06 08:01:27;;;;;;;4.20;3.40;;;;;;;23.91;60.41;97534.44;109150;1255;44986;-85
2023/09/06 08:03:59;;;;;;;4.20;2.90;;;;;;;24.02;60.21;97534.67;109178;1269;22537;-84
2023/09/06 08:06:30;;;;;;;3.70;3.00;;;;;;;24.06;59.58;97537.36;109244;1266;25294;-85
2023/09/06 08:09:04;;;;;;;4.40;3.50;;;;;;;24.01;59.23;97533.39;109255;1271;22505;-85
2023/09/06 08:11:41;;;;;;;4.90;3.20;;;;;;;24.02;59.49;97535.22;109212;1267;32989;-85
2023/09/06 08:14:15;;;;;;;4.40;3.20;;;;;;;24.10;59.36;97537.33;109164;1269;23113;-85
2023/09/06 08:16:47;;;;;;;6.20;3.20;;;;;;;24.14;58.91;97538.27;109219;1262;22538;-85
2023/09/06 08:19:18;;;;;;;4.10;3.20;;;;;;;24.20;59.09;97531.63;109257;1269;22523;-85
2023/09/06 08:21:49;;;;;;;4.80;3.40;;;;;;;24.25;59.14;97532.02;109163;1272;64495;-85
2023/09/06 08:24:21;;;;;;;5.50;3.60;;;;;;;24.15;58.76;97528.86;109148;1272;23291;-85
2023/09/06 08:26:54;;;;;;;3.70;3.00;;;;;;;24.16;58.56;97526.48;109222;1269;22634;-85
2023/09/06 08:29:25;;;;;;;4.20;3.40;;;;;;;24.17;58.57;97521.77;109196;1269;22561;-85
2023/09/06 08:31:56;;;;;;;4.00;3.30;;;;;;;24.19;58.98;97523.00;109172;1269;44235;-84
2023/09/06 08:34:28;;;;;;;4.00;3.10;;;;;;;24.15;58.27;97526.44;109187;1272;22540;-85
2023/09/06 08:36:59;;;;;;;4.80;3.40;;;;;;;24.18;58.37;97526.38;109225;1266;22516;-85
2023/09/06 08:39:31;;;;;;;3.90;3.30;;;;;;;24.18;58.20;97530.23;109194;1269;23784;-85
2023/09/06 08:42:08;;;;;;;5.70;3.50;;;;;;;24.13;57.98;97527.65;109194;1268;50165;-85
2023/09/06 08:44:44;;;;;;;5.10;3.30;;;;;;;23.87;57.29;97530.14;109183;1272;22972;-85
2023/09/06 08:47:18;;;;;;;4.40;3.40;;;;;;;23.67;56.94;97532.63;109211;1269;23872;-85
2023/09/06 08:49:53;;;;;;;3.40;2.90;;;;;;;23.67;57.61;97525.52;109206;1269;22556;-85
2023/09/06 08:52:26;;;;;;;4.30;2.90;;;;;;;23.83;57.79;97526.06;109184;1272;42282;-84
2023/09/06 08:54:57;;;;;;;3.80;3.10;;;;;;;23.88;57.34;97526.77;109226;1272;22635;-85
2023/09/06 08:57:30;;;;;;;4.20;3.20;;;;;;;23.83;56.84;97527.63;109231;1272;23864;-85
2023/09/06 09:00:01;;;;;;;7.20;3.30;;;;;;;23.82;56.94;97527.83;109213;1266;22560;-85
2023/09/06 09:02:33;;;;;;;4.20;3.30;;;;;;;23.90;57.16;97524.64;109177;1269;70838;-85
2023/09/06 09:05:05;;;;;;;4.70;3.40;;;;;;;24.03;57.22;97527.65;109272;1269;22575;-83
2023/09/06 09:07:39;;;;;;;4.30;3.50;;;;;;;24.10;57.49;97526.30;109513;1272;22542;-83
2023/09/06 09:10:20;;;;;;;7.00;3.20;;;;;;;24.24;57.53;97525.56;109418;1272;22529;-84
2023/09/06 09:12:56;;;;;;;6.20;3.20;;;;;;;24.28;56.86;97525.81;109264;1269;22513;-84
2023/09/06 09:15:30;;;;;;;6.00;3.50;;;;;;;24.29;57.13;97527.45;109242;1271;22508;-84
2023/09/06 09:18:09;;;;;;;4.60;3.30;;;;;;;24.35;57.06;97528.27;109318;1271;22577;-84
2023/09/06 09:20:43;;;;;;;4.50;3.10;;;;;;;24.30;56.84;97525.80;109260;1267;25399;-84
2023/09/06 09:23:16;;;;;;;4.50;3.20;;;;;;;24.16;56.30;97525.31;109252;1269;23689;-84
2023/09/06 09:25:51;;;;;;;4.50;3.50;;;;;;;23.81;55.75;97529.48;109236;1269;24980;-84
2023/09/06 09:28:22;;;;;;;5.40;3.40;;;;;;;23.56;55.82;97528.41;109271;1266;25427;-83
2023/09/06 09:30:57;;;;;;;6.00;3.80;;;;;;;23.48;56.78;97528.30;109305;1267;73150;-82
2023/09/06 09:33:30;;;;;;;5.90;3.90;;;;;;;23.34;56.76;97529.64;109310;1269;22660;-83
2023/09/06 09:36:02;;;;;;;6.10;4.20;;;;;;;23.29;57.22;97527.27;109247;1271;22514;-83
2023/09/06 09:38:33;;;;;;;4.40;3.50;;;;;;;23.23;57.71;97530.44;109307;1269;22566;-82
2023/09/06 09:41:10;;;;;;;5.60;3.70;;;;;;;23.29;58.33;97527.80;108766;1266;51267;-81
2023/09/06 09:43:43;;;;;;;4.80;3.80;;;;;;;23.34;58.26;97528.88;108890;1272;24145;-84
2023/09/06 09:46:25;;;;;;;7.00;3.50;;;;;;;23.46;58.84;97531.79;108845;1262;22601;-84
2023/09/06 09:49:01;;;;;;;7.60;4.10;;;;;;;23.53;59.24;97527.94;109343;1268;22555;-84
2023/09/06 09:51:34;;;;;;;6.00;3.40;;;;;;;23.66;59.45;97530.13;109203;1272;24225;-84
2023/09/06 09:54:07;;;;;;;4.70;3.80;;;;;;;23.75;59.57;97530.00;109237;1267;22908;-83
2023/09/06 09:56:42;;;;;;;5.70;4.00;;;;;;;23.81;59.61;97529.19;109236;1269;22786;-82
2023/09/06 09:59:16;;;;;;;5.10;3.60;;;;;;;23.85;59.40;97528.98;109361;1269;22566;-81
2023/09/06 10:01:51;;;;;;;5.00;3.50;;;;;;;23.85;59.45;97529.21;109183;1265;136474;-82
2023/09/06 10:04:26;;;;;;;5.20;3.40;;;;;;;23.88;60.21;97530.92;109266;1266;22768;-82
2023/09/06 10:06:59;;;;;;;7.10;3.80;;;;;;;23.93;59.95;97535.27;109464;1265;25315;-81
2023/09/06 10:09:31;;;;;;;5.10;3.90;;;;;;;23.97;60.03;97533.99;109396;1272;22552;-82
2023/09/06 10:12:08;;;;;;;4.20;3.60;;;;;;;23.87;58.88;97534.55;108617;1266;22688;-81
2023/09/06 10:14:44;;;;;;;4.80;3.70;;;;;;;23.70;59.35;97535.52;109314;1272;22990;-81
2023/09/06 10:17:18;;;;;;;6.40;4.20;;;;;;;23.65;59.68;97530.34;109123;1271;25252;-82
2023/09/06 10:19:51;;;;;;;5.80;3.60;;;;;;;23.70;60.50;97527.39;109233;1271;22537;-82
2023/09/06 10:22:23;;;;;;;4.30;3.40;;;;;;;23.79;60.65;97525.09;109191;1272;63366;-82
2023/09/06 10:24:55;;;;;;;5.80;3.70;;;;;;;23.84;60.33;97521.39;109252;1267;22527;-81
2023/09/06 10:27:34;;;;;;;5.00;3.40;;;;;;;23.63;59.24;97526.73;109237;1269;22537;-81
2023/09/06 10:30:17;;;;;;;6.80;3.90;;;;;;;23.58;60.32;97533.44;109189;1272;24234;-81
2023/09/06 10:32:50;;;;;;;5.70;3.60;;;;;;;23.58;59.33;97532.11;109330;1269;37221;-81
2023/09/06 10:35:27;;;;;;;5.30;4.00;;;;;;;23.51;59.71;97531.11;109277;1272;22563;-82
2023/09/06 10:38:07;;;;;;;5.40;3.80;;;;;;;23.57;60.25;97531.23;109359;1259;25251;-82
2023/09/06 10:41:10;;;;;;;5.40;4.40;;;;;;;23.62;60.17;97533.04;109324;1267;22659;-82
2023/09/06 10:44:06;;;;;;;8.30;4.40;;;;;;;23.47;60.26;97532.12;109212;1271;23279;-82
2023/09/06 10:46:39;;;;;;;5.10;3.70;;;;;;;23.50;61.06;97532.39;109215;1272;22595;-82
2023/09/06 10:49:19;;;;;;;6.90;4.60;;;;;;;23.47;61.17;97532.99;109306;1269;22731;-82
2023/09/06 10:52:02;;;;;;;6.30;4.30;;;;;;;23.50;61.66;97533.55;109208;1264;22497;-82
2023/09/06 10:54:41;;;;;;;7.10;4.50;;;;;;;23.55;61.54;97530.30;109237;1264;22511;-82
2023/09/06 10:57:14;;;;;;;6.70;3.70;;;;;;;23.50;61.10;97531.84;109237;1272;23791;-81
2023/09/06 10:59:57;;;;;;;6.10;3.90;;;;;;;23.50;61.10;97527.98;109298;1270;22509;-81
2023/09/06 11:02:30;;;;;;;6.20;4.70;;;;;;;23.53;61.92;97522.67;109203;1272;26013;-83
2023/09/06 11:05:11;;;;;;;6.80;4.10;;;;;;;23.58;61.81;97525.88;109246;1266;25402;-83
2023/09/06 11:07:46;;;;;;;6.30;4.70;;;;;;;23.61;61.71;97525.16;109428;1272;22558;-82
2023/09/06 11:10:23;;;;;;;4.70;4.10;;;;;;;23.50;61.16;97521.95;109195;1272;23643;-83
2023/09/06 11:12:55;;;;;;;6.30;4.00;;;;;;;23.50;62.04;97520.77;109196;1270;30278;-83
2023/09/06 11:15:27;;;;;;;6.30;3.90;;;;;;;23.55;62.12;97522.11;109238;1269;22623;-81
2023/09/06 11:18:01;;;;;;;6.40;4.10;;;;;;;23.52;61.16;97521.33;109286;1269;22943;-81
2023/09/06 11:20:34;;;;;;;5.60;3.70;;;;;;;23.41;60.80;97520.98;109546;1272;22522;-81
2023/09/06 11:23:06;;;;;;;5.90;3.70;;;;;;;23.41;61.25;97519.68;109463;1266;24176;-81
2023/09/06 11:25:40;;;;;;;3.80;3.40;;;;;;;23.46;61.46;97514.61;109229;1270;24256;-80
2023/09/06 11:28:19;;;;;;;4.60;3.50;;;;;;;23.46;60.95;97514.33;108853;1272;22515;-81
2023/09/06 11:30:53;;;;;;;8.80;4.00;;;;;;;23.35;60.37;97512.98;108901;1267;22508;-80
2023/09/06 11:33:33;;;;;;;5.90;4.00;;;;;;;23.19;59.72;97515.72;108855;1254;22511;-81
2023/09/06 11:36:06;;;;;;;6.80;4.20;;;;;;;22.95;59.67;97518.20;109319;1272;22511;-81
2023/09/06 11:38:40;;;;;;;4.50;3.70;;;;;;;22.97;60.74;97513.06;108916;1269;22634;-81
2023/09/06 11:41:12;;;;;;;6.10;4.50;;;;;;;23.07;60.78;97509.30;108874;1272;42947;-81
2023/09/06 11:43:48;;;;;;;4.90;3.80;;;;;;;23.17;61.39;97509.70;108956;1272;22529;-81
2023/09/06 11:46:21;;;;;;;6.60;3.90;;;;;;;23.20;60.49;97510.65;109236;1270;22572;-81
2023/09/06 11:48:55;;;;;;;4.80;3.40;;;;;;;23.18;60.19;97509.80;109270;1267;22505;-84
2023/09/06 11:51:28;;;;;;;8.80;3.40;;;;;;;23.15;59.90;97507.46;108871;1267;25623;-82
2023/09/06 11:54:00;;;;;;;5.70;4.00;;;;;;;23.20;60.06;97508.95;108780;1269;22512;-80
2023/09/06 11:56:33;;;;;;;5.20;3.50;;;;;;;23.17;59.33;97508.61;108761;1269;22536;-82